Historyczne dane pomiarowe

Dodano dane terminowe – wersja testowa.

Dane z okresu 1951-2019

Wersja bazy: 1.34 [2019-03-16, lista zmian], aktualizacja planowana na 2019-04-15

Dane meteo z obszaru Polski uzyskane na podstawie danych udostępnionych przez Instytut Meteorologii i Gospodarki Wodnej – Państwowy Instytut Badawczy.

 

Wybierz Datę:    

       

TemperaturaWilgotnośćZachmurzenieWiatrCiśnienieWidzialnośćZjawiska
 Data    tng td wb rh cc ccl cl cm ch dir g1 g2 mslp ppp      
1999-07-25 00:00:00 13.0--- 11.2 12.089wxwx1wx--1019.3 997.0 0.0---wx
1999-07-25 01:00:00 12.8--- 11.0 11.889wxwx1wx--1019.4 997.0----wx
1999-07-25 02:00:00 12.4--- 10.6 11.489wxwx1wx--1019.4 997.0----wx
1999-07-25 03:00:00 13.4--- 11.7 12.489wxwx2wx--1019.1 996.8----wx
1999-07-25 04:00:00 14.0--- 12.3 13.089wxwxwx2wx--1019.2 996.9----wx
1999-07-25 05:00:00 15.0--- 13.0 13.888wxwxwx3wx--1019.3 997.1----wx
1999-07-25 06:00:00 17.2--- 13.9 15.281wxwxwx3wx--1019.3 997.3 0.0---wx
1999-07-25 07:00:00 17.9--- 13.8 15.477wxwxwx3wx--1019.4 997.4----wx
1999-07-25 08:00:00 18.7--- 15.0 16.479wxwxwx3wx--1019.2 997.3----wx
1999-07-25 09:00:00 20.8--- 15.4 17.471wxwxwx4wx--1019.0 997.3----wx
1999-07-25 10:00:00 21.9--- 16.0 18.169wxwxwx4wx--1018.8 997.1----wx
1999-07-25 11:00:00 22.3--- 16.2 18.469wxwxwx4wx--1018.5 996.9----wx
1999-07-25 12:00:00 23.5--- 16.9 19.267wxwxwx5wx--1018.0 996.5 0.0---wx
1999-07-25 13:00:00 24.1--- 16.0 18.961wxwxwx4wx--1017.7 996.2----wx
1999-07-25 14:00:00 23.7--- 16.5 19.064wxwxwx3wx--1017.6 996.1----wx
1999-07-25 15:00:00 22.4--- 16.4 18.569wxwxwx3wx--1017.6 996.0----wx
1999-07-25 16:00:00 22.5--- 17.1 19.072wxwxwx3wx--1017.6 996.0----wx
1999-07-25 17:00:00 21.9--- 16.8 18.673wxwxwx2wx--1017.4 995.8----wx
1999-07-25 18:00:00 19.4--- 17.9 18.491wxwxwx1wx--1017.8 996.0 0.4---wx
1999-07-25 19:00:00 19.2--- 17.7 18.291wxwxwx0wx--1018.1 996.3----wx
1999-07-25 20:00:00 18.6--- 17.7 18.094wxwxwx0wx--1018.3 996.4----wx
1999-07-25 21:00:00 17.1--- 16.1 16.594wxwxwx0wx--1018.4 996.4----wx
1999-07-25 22:00:00 16.9--- 16.1 16.495wxwxwx0wx--1018.3 996.3----wx
1999-07-25 23:00:00 16.6--- 16.0 16.296wxwxwx0wx--1018.3 996.3----wx

 

Źródłem pochodzenia danych jest Instytut Meteorologii i Gospodarki Wodnej – Państwowy Instytut Badawczy. Dane Instytutu Meteorologii i Gospodarki Wodnej – Państwowego Instytutu Badawczego zostały przetworzone.

Dane źródłowe można odnaleźć na stronie https://dane.imgw.pl